sensor_id;sensor_type;location;lat;lon;timestamp;pressure;altitude;pressure_sealevel;temperature;humidity
23659;BME280;12006;42.666;23.326;2023-06-26T00:00:48;-24482.44;;;20.54;100.00
23659;BME280;12006;42.666;23.326;2023-06-26T00:03:13;-24481.41;;;20.51;100.00
23659;BME280;12006;42.666;23.326;2023-06-26T00:05:41;-24480.75;;;20.49;100.00
23659;BME280;12006;42.666;23.326;2023-06-26T00:08:07;-24482.78;;;20.55;100.00
23659;BME280;12006;42.666;23.326;2023-06-26T00:10:32;-24483.28;;;20.56;100.00
23659;BME280;12006;42.666;23.326;2023-06-26T00:12:57;-24479.88;;;20.46;100.00
23659;BME280;12006;42.666;23.326;2023-06-26T00:15:23;-24480.41;;;20.48;100.00
23659;BME280;12006;42.666;23.326;2023-06-26T00:17:49;-24478.88;;;20.43;100.00
23659;BME280;12006;42.666;23.326;2023-06-26T00:20:16;-24476.66;;;20.37;100.00
23659;BME280;12006;42.666;23.326;2023-06-26T00:22:41;-24477.00;;;20.38;100.00
23659;BME280;12006;42.666;23.326;2023-06-26T00:25:07;-24477.00;;;20.38;100.00
23659;BME280;12006;42.666;23.326;2023-06-26T00:27:33;-24478.00;;;20.41;100.00
23659;BME280;12006;42.666;23.326;2023-06-26T00:29:58;-24475.44;;;20.33;100.00
23659;BME280;12006;42.666;23.326;2023-06-26T00:32:24;-24474.78;;;20.31;100.00
23659;BME280;12006;42.666;23.326;2023-06-26T00:34:49;-24473.41;;;20.27;100.00
23659;BME280;12006;42.666;23.326;2023-06-26T00:37:15;-24473.41;;;20.27;100.00
23659;BME280;12006;42.666;23.326;2023-06-26T00:39:40;-24473.56;;;20.28;100.00
23659;BME280;12006;42.666;23.326;2023-06-26T00:42:06;-24471.88;;;20.23;100.00
23659;BME280;12006;42.666;23.326;2023-06-26T00:44:31;-24469.81;;;20.17;100.00
23659;BME280;12006;42.666;23.326;2023-06-26T00:46:57;-24468.13;;;20.12;100.00
23659;BME280;12006;42.666;23.326;2023-06-26T00:49:23;-24468.47;;;20.13;100.00
23659;BME280;12006;42.666;23.326;2023-06-26T00:51:48;-24466.25;;;20.07;100.00
23659;BME280;12006;42.666;23.326;2023-06-26T00:54:14;-24467.44;;;20.10;100.00
23659;BME280;12006;42.666;23.326;2023-06-26T00:56:45;-24466.41;;;20.07;100.00
23659;BME280;12006;42.666;23.326;2023-06-26T00:59:11;-24466.41;;;20.07;100.00
23659;BME280;12006;42.666;23.326;2023-06-26T01:01:37;-24465.56;;;20.05;100.00
23659;BME280;12006;42.666;23.326;2023-06-26T01:04:02;-24466.25;;;20.07;100.00
23659;BME280;12006;42.666;23.326;2023-06-26T01:06:30;-24465.38;;;20.04;100.00
23659;BME280;12006;42.666;23.326;2023-06-26T01:08:58;-24462.81;;;19.97;100.00
23659;BME280;12006;42.666;23.326;2023-06-26T01:11:24;-24464.38;;;20.01;100.00
23659;BME280;12006;42.666;23.326;2023-06-26T01:13:50;-24463.00;;;19.97;100.00
23659;BME280;12006;42.666;23.326;2023-06-26T01:16:17;-24462.66;;;19.96;100.00
23659;BME280;12006;42.666;23.326;2023-06-26T01:18:45;-24461.97;;;19.94;100.00
23659;BME280;12006;42.666;23.326;2023-06-26T01:21:11;-24459.91;;;19.88;100.00
23659;BME280;12006;42.666;23.326;2023-06-26T01:23:58;-24458.03;;;19.83;100.00
23659;BME280;12006;42.666;23.326;2023-06-26T01:26:26;-24456.50;;;19.78;100.00
23659;BME280;12006;42.666;23.326;2023-06-26T01:28:56;-24456.16;;;19.77;100.00
23659;BME280;12006;42.666;23.326;2023-06-26T01:31:24;-24455.81;;;19.76;100.00
23659;BME280;12006;42.666;23.326;2023-06-26T01:33:49;-24454.78;;;19.73;100.00
23659;BME280;12006;42.666;23.326;2023-06-26T01:36:15;-24455.66;;;19.76;100.00
23659;BME280;12006;42.666;23.326;2023-06-26T01:38:40;-24454.78;;;19.73;100.00
23659;BME280;12006;42.666;23.326;2023-06-26T01:41:06;-24454.63;;;19.73;100.00
23659;BME280;12006;42.666;23.326;2023-06-26T01:46:24;-24452.41;;;19.66;100.00
23659;BME280;12006;42.666;23.326;2023-06-26T01:49:09;-24451.03;;;19.62;100.00
23659;BME280;12006;42.666;23.326;2023-06-26T01:51:51;-24450.34;;;19.60;100.00
23659;BME280;12006;42.666;23.326;2023-06-26T01:54:21;-24443.38;;;19.40;100.00
23659;BME280;12006;42.666;23.326;2023-06-26T01:56:49;-24450.34;;;19.60;100.00
23659;BME280;12006;42.666;23.326;2023-06-26T01:59:19;-24450.34;;;19.60;100.00
23659;BME280;12006;42.666;23.326;2023-06-26T02:01:46;-24451.03;;;19.62;100.00
23659;BME280;12006;42.666;23.326;2023-06-26T02:04:12;-24452.41;;;19.66;100.00
23659;BME280;12006;42.666;23.326;2023-06-26T02:06:37;-24452.75;;;19.67;100.00
23659;BME280;12006;42.666;23.326;2023-06-26T02:09:03;-24451.03;;;19.62;100.00
23659;BME280;12006;42.666;23.326;2023-06-26T02:11:29;-24453.09;;;19.68;100.00
23659;BME280;12006;42.666;23.326;2023-06-26T02:13:54;-24451.56;;;19.64;100.00
23659;BME280;12006;42.666;23.326;2023-06-26T02:16:19;-24451.03;;;19.62;100.00
23659;BME280;12006;42.666;23.326;2023-06-26T02:18:45;-24449.00;;;19.56;100.00
23659;BME280;12006;42.666;23.326;2023-06-26T02:21:10;-24449.00;;;19.56;100.00
23659;BME280;12006;42.666;23.326;2023-06-26T02:23:36;-24450.34;;;19.60;100.00
23659;BME280;12006;42.666;23.326;2023-06-26T02:26:02;-24449.34;;;19.57;100.00
23659;BME280;12006;42.666;23.326;2023-06-26T02:28:27;-24448.31;;;19.54;100.00
23659;BME280;12006;42.666;23.326;2023-06-26T02:30:53;-24448.47;;;19.55;100.00
23659;BME280;12006;42.666;23.326;2023-06-26T02:33:18;-24451.03;;;19.62;100.00
23659;BME280;12006;42.666;23.326;2023-06-26T02:35:43;-24452.06;;;19.65;100.00
23659;BME280;12006;42.666;23.326;2023-06-26T02:38:09;-24452.56;;;19.67;100.00
23659;BME280;12006;42.666;23.326;2023-06-26T02:40:34;-24452.56;;;19.67;100.00
23659;BME280;12006;42.666;23.326;2023-06-26T02:43:00;-24442.00;;;19.36;100.00
23659;BME280;12006;42.666;23.326;2023-06-26T02:45:25;-24453.94;;;19.71;100.00
23659;BME280;12006;42.666;23.326;2023-06-26T02:47:50;-24453.78;;;19.70;100.00
23659;BME280;12006;42.666;23.326;2023-06-26T02:50:16;-24455.66;;;19.76;100.00
23659;BME280;12006;42.666;23.326;2023-06-26T02:52:41;-24454.97;;;19.74;100.00
23659;BME280;12006;42.666;23.326;2023-06-26T02:55:07;-24456.66;;;19.79;100.00
23659;BME280;12006;42.666;23.326;2023-06-26T02:57:32;-24456.84;;;19.79;100.00
23659;BME280;12006;42.666;23.326;2023-06-26T02:59:57;-24456.16;;;19.77;100.00
23659;BME280;12006;42.666;23.326;2023-06-26T03:02:23;-24454.44;;;19.72;100.00
23659;BME280;12006;42.666;23.326;2023-06-26T03:04:48;-24455.81;;;19.76;100.00
23659;BME280;12006;42.666;23.326;2023-06-26T03:07:15;-24453.44;;;19.69;100.00
23659;BME280;12006;42.666;23.326;2023-06-26T03:09:41;-24453.09;;;19.68;100.00
23659;BME280;12006;42.666;23.326;2023-06-26T03:12:07;-24466.91;;;20.09;100.00
23659;BME280;12006;42.666;23.326;2023-06-26T03:14:32;-24467.94;;;20.11;100.00
23659;BME280;12006;42.666;23.326;2023-06-26T03:16:58;-24468.78;;;20.14;100.00
23659;BME280;12006;42.666;23.326;2023-06-26T03:19:24;-24465.91;;;20.06;100.00
23659;BME280;12006;42.666;23.326;2023-06-26T03:21:49;-24466.41;;;20.07;100.00
23659;BME280;12006;42.666;23.326;2023-06-26T03:24:15;-24467.09;;;20.09;100.00
23659;BME280;12006;42.666;23.326;2023-06-26T03:26:40;-24466.75;;;20.08;100.00
23659;BME280;12006;42.666;23.326;2023-06-26T03:29:06;-24464.03;;;20.00;100.00
23659;BME280;12006;42.666;23.326;2023-06-26T03:31:31;-24465.03;;;20.03;100.00
23659;BME280;12006;42.666;23.326;2023-06-26T03:33:56;-24463.84;;;20.00;100.00
23659;BME280;12006;42.666;23.326;2023-06-26T03:36:22;-24462.16;;;19.95;100.00
23659;BME280;12006;42.666;23.326;2023-06-26T03:38:47;-24462.66;;;19.96;100.00
23659;BME280;12006;42.666;23.326;2023-06-26T03:41:13;-24463.69;;;19.99;100.00
23659;BME280;12006;42.666;23.326;2023-06-26T03:43:38;-24462.66;;;19.96;100.00
23659;BME280;12006;42.666;23.326;2023-06-26T03:46:03;-24462.31;;;19.95;100.00
23659;BME280;12006;42.666;23.326;2023-06-26T03:48:29;-24461.97;;;19.94;100.00
23659;BME280;12006;42.666;23.326;2023-06-26T03:50:54;-24462.81;;;19.97;100.00
23659;BME280;12006;42.666;23.326;2023-06-26T03:53:20;-24463.69;;;19.99;100.00
23659;BME280;12006;42.666;23.326;2023-06-26T03:55:46;-24443.53;;;19.41;100.00
23659;BME280;12006;42.666;23.326;2023-06-26T03:58:12;-24442.84;;;19.39;100.00
23659;BME280;12006;42.666;23.326;2023-06-26T04:00:37;-24441.66;;;19.35;100.00
23659;BME280;12006;42.666;23.326;2023-06-26T04:03:02;-24444.56;;;19.44;100.00
23659;BME280;12006;42.666;23.326;2023-06-26T04:05:29;-24447.63;;;19.52;100.00
23659;BME280;12006;42.666;23.326;2023-06-26T04:07:54;-24448.66;;;19.55;100.00
23659;BME280;12006;42.666;23.326;2023-06-26T04:10:20;-24464.38;;;20.01;100.00
23659;BME280;12006;42.666;23.326;2023-06-26T04:12:46;-24470.66;;;20.19;100.00
23659;BME280;12006;42.666;23.326;2023-06-26T04:15:13;-24468.78;;;20.14;100.00
23659;BME280;12006;42.666;23.326;2023-06-26T04:17:38;-24474.25;;;20.30;100.00
23659;BME280;12006;42.666;23.326;2023-06-26T04:20:04;-24478.34;;;20.42;100.00
23659;BME280;12006;42.666;23.326;2023-06-26T04:22:32;-24481.41;;;20.51;100.00
23659;BME280;12006;42.666;23.326;2023-06-26T04:24:57;-24484.50;;;20.60;100.00
23659;BME280;12006;42.666;23.326;2023-06-26T04:27:22;-24487.22;;;20.68;100.00
23659;BME280;12006;42.666;23.326;2023-06-26T04:29:48;-24490.28;;;20.76;100.00
23659;BME280;12006;42.666;23.326;2023-06-26T04:32:13;-24485.50;;;20.63;100.00
23659;BME280;12006;42.666;23.326;2023-06-26T04:34:39;-24486.88;;;20.67;100.00
23659;BME280;12006;42.666;23.326;2023-06-26T04:37:08;-24489.28;;;20.73;100.00
23659;BME280;12006;42.666;23.326;2023-06-26T04:39:35;-24489.28;;;20.73;100.00
23659;BME280;12006;42.666;23.326;2023-06-26T04:42:02;-24490.63;;;20.77;100.00
23659;BME280;12006;42.666;23.326;2023-06-26T04:44:27;-24494.22;;;20.88;100.00
23659;BME280;12006;42.666;23.326;2023-06-26T04:46:52;-24494.38;;;20.88;100.00
23659;BME280;12006;42.666;23.326;2023-06-26T04:49:18;-24495.06;;;20.90;100.00
23659;BME280;12006;42.666;23.326;2023-06-26T04:51:43;-24494.72;;;20.89;100.00
23659;BME280;12006;42.666;23.326;2023-06-26T04:54:10;-24492.00;;;20.81;100.00
23659;BME280;12006;42.666;23.326;2023-06-26T04:56:36;-24493.72;;;20.86;100.00
23659;BME280;12006;42.666;23.326;2023-06-26T04:59:02;-24494.38;;;20.88;100.00
23659;BME280;12006;42.666;23.326;2023-06-26T05:01:28;-24495.41;;;20.91;100.00
23659;BME280;12006;42.666;23.326;2023-06-26T05:04:01;-24502.56;;;21.12;100.00
23659;BME280;12006;42.666;23.326;2023-06-26T05:06:26;-24501.56;;;21.09;100.00
23659;BME280;12006;42.666;23.326;2023-06-26T05:08:51;-24502.22;;;21.11;100.00
23659;BME280;12006;42.666;23.326;2023-06-26T05:11:17;-24501.56;;;21.09;100.00
23659;BME280;12006;42.666;23.326;2023-06-26T05:13:42;-24505.47;;;21.21;100.00
23659;BME280;12006;42.666;23.326;2023-06-26T05:16:08;-24500.88;;;21.07;100.00
23659;BME280;12006;42.666;23.326;2023-06-26T05:18:35;-24509.06;;;21.31;100.00
23659;BME280;12006;42.666;23.326;2023-06-26T05:21:02;-24511.59;;;21.38;100.00
23659;BME280;12006;42.666;23.326;2023-06-26T05:23:30;-24510.06;;;21.34;100.00
23659;BME280;12006;42.666;23.326;2023-06-26T05:25:56;-24513.16;;;21.43;100.00
23659;BME280;12006;42.666;23.326;2023-06-26T05:28:22;-24511.78;;;21.39;100.00
23659;BME280;12006;42.666;23.326;2023-06-26T05:30:53;-24517.06;;;21.54;100.00
23659;BME280;12006;42.666;23.326;2023-06-26T05:33:21;-24515.53;;;21.50;100.00
23659;BME280;12006;42.666;23.326;2023-06-26T05:35:48;-24519.97;;;21.63;100.00
23659;BME280;12006;42.666;23.326;2023-06-26T05:38:14;-24527.97;;;21.86;100.00
23659;BME280;12006;42.666;23.326;2023-06-26T05:40:40;-24528.50;;;21.88;100.00
23659;BME280;12006;42.666;23.326;2023-06-26T05:43:06;-24529.16;;;21.90;100.00
23659;BME280;12006;42.666;23.326;2023-06-26T05:45:31;-24527.97;;;21.86;100.00
23659;BME280;12006;42.666;23.326;2023-06-26T05:47:57;-24535.13;;;22.07;100.00
23659;BME280;12006;42.666;23.326;2023-06-26T05:50:23;-24529.16;;;21.90;100.00
23659;BME280;12006;42.666;23.326;2023-06-26T05:52:49;-24522.00;;;21.69;100.00
23659;BME280;12006;42.666;23.326;2023-06-26T05:55:14;-24527.47;;;21.85;100.00
23659;BME280;12006;42.666;23.326;2023-06-26T05:57:40;-24529.16;;;21.90;100.00
23659;BME280;12006;42.666;23.326;2023-06-26T06:00:06;-24532.22;;;21.98;100.00
23659;BME280;12006;42.666;23.326;2023-06-26T06:02:36;-24531.56;;;21.96;100.00
23659;BME280;12006;42.666;23.326;2023-06-26T06:05:02;-24539.56;;;22.20;100.00
23659;BME280;12006;42.666;23.326;2023-06-26T06:07:28;-24546.56;;;22.40;100.00
23659;BME280;12006;42.666;23.326;2023-06-26T06:09:53;-24551.66;;;22.55;100.00
23659;BME280;12006;42.666;23.326;2023-06-26T06:12:19;-24558.66;;;22.75;100.00
23659;BME280;12006;42.666;23.326;2023-06-26T06:14:44;-24553.19;;;22.59;100.00
23659;BME280;12006;42.666;23.326;2023-06-26T06:17:09;-24550.97;;;22.53;100.00
23659;BME280;12006;42.666;23.326;2023-06-26T06:19:35;-24546.56;;;22.40;100.00
23659;BME280;12006;42.666;23.326;2023-06-26T06:22:00;-24546.91;;;22.41;100.00
23659;BME280;12006;42.666;23.326;2023-06-26T06:24:26;-24547.56;;;22.43;100.00
23659;BME280;12006;42.666;23.326;2023-06-26T06:26:51;-24554.06;;;22.62;100.00
23659;BME280;12006;42.666;23.326;2023-06-26T06:29:16;-24553.03;;;22.59;100.00
23659;BME280;12006;42.666;23.326;2023-06-26T06:31:44;-24554.38;;;22.63;100.00
23659;BME280;12006;42.666;23.326;2023-06-26T06:34:09;-24563.59;;;22.90;100.00
23659;BME280;12006;42.666;23.326;2023-06-26T06:36:34;-24566.66;;;22.99;100.00
23659;BME280;12006;42.666;23.326;2023-06-26T06:39:00;-24571.94;;;23.14;100.00
23659;BME280;12006;42.666;23.326;2023-06-26T06:41:25;-24563.06;;;22.88;100.00
23659;BME280;12006;42.666;23.326;2023-06-26T06:43:51;-24560.19;;;22.80;100.00
23659;BME280;12006;42.666;23.326;2023-06-26T06:46:16;-24554.72;;;22.64;100.00
23659;BME280;12006;42.666;23.326;2023-06-26T06:48:41;-24550.97;;;22.53;100.00
23659;BME280;12006;42.666;23.326;2023-06-26T06:51:07;-24549.44;;;22.49;100.00
23659;BME280;12006;42.666;23.326;2023-06-26T06:53:32;-24552.00;;;22.56;100.00
23659;BME280;12006;42.666;23.326;2023-06-26T06:55:58;-24557.28;;;22.71;100.00
23659;BME280;12006;42.666;23.326;2023-06-26T06:58:23;-24562.56;;;22.87;100.00
23659;BME280;12006;42.666;23.326;2023-06-26T07:00:49;-24571.44;;;23.13;100.00
23659;BME280;12006;42.666;23.326;2023-06-26T07:03:16;-24576.19;;;23.26;100.00
23659;BME280;12006;42.666;23.326;2023-06-26T07:05:42;-24579.78;;;23.37;100.00
23659;BME280;12006;42.666;23.326;2023-06-26T07:08:07;-24581.13;;;23.41;100.00
23659;BME280;12006;42.666;23.326;2023-06-26T07:10:33;-24580.78;;;23.40;100.00
23659;BME280;12006;42.666;23.326;2023-06-26T07:12:59;-24583.00;;;23.46;100.00
23659;BME280;12006;42.666;23.326;2023-06-26T07:15:24;-24583.00;;;23.46;100.00
23659;BME280;12006;42.666;23.326;2023-06-26T07:17:49;-24583.50;;;23.48;100.00
23659;BME280;12006;42.666;23.326;2023-06-26T07:20:15;-24582.31;;;23.44;100.00
23659;BME280;12006;42.666;23.326;2023-06-26T07:22:42;-24579.94;;;23.37;100.00
23659;BME280;12006;42.666;23.326;2023-06-26T07:25:08;-24582.16;;;23.44;100.00
23659;BME280;12006;42.666;23.326;2023-06-26T07:27:37;-24585.91;;;23.55;100.00
23659;BME280;12006;42.666;23.326;2023-06-26T07:30:02;-24592.88;;;23.75;100.00
23659;BME280;12006;42.666;23.326;2023-06-26T07:32:28;-24598.16;;;23.90;100.00
23659;BME280;12006;42.666;23.326;2023-06-26T07:34:54;-24610.06;;;24.25;100.00
23659;BME280;12006;42.666;23.326;2023-06-26T07:37:19;-24610.56;;;24.27;100.00
23659;BME280;12006;42.666;23.326;2023-06-26T07:39:45;-24612.09;;;24.31;100.00
23659;BME280;12006;42.666;23.326;2023-06-26T07:42:10;-24610.22;;;24.26;100.00
23659;BME280;12006;42.666;23.326;2023-06-26T07:44:35;-24609.72;;;24.24;100.00
23659;BME280;12006;42.666;23.326;2023-06-26T07:47:01;-24605.63;;;24.12;100.00
23659;BME280;12006;42.666;23.326;2023-06-26T07:49:26;-24610.22;;;24.26;100.00
23659;BME280;12006;42.666;23.326;2023-06-26T07:51:52;-24622.16;;;24.60;100.00
23659;BME280;12006;42.666;23.326;2023-06-26T07:54:17;-24627.94;;;24.77;100.00
23659;BME280;12006;42.666;23.326;2023-06-26T07:59:18;-24616.34;;;24.43;100.00
23659;BME280;12006;42.666;23.326;2023-06-26T08:01:43;-24611.94;;;24.31;100.00
23659;BME280;12006;42.666;23.326;2023-06-26T08:04:09;-24610.56;;;24.27;100.00
23659;BME280;12006;42.666;23.326;2023-06-26T08:06:36;-24610.75;;;24.27;100.00
23659;BME280;12006;42.666;23.326;2023-06-26T08:09:05;-24612.97;;;24.34;100.00
23659;BME280;12006;42.666;23.326;2023-06-26T08:11:32;-24616.34;;;24.43;100.00
23659;BME280;12006;42.666;23.326;2023-06-26T08:13:58;-24629.63;;;24.82;100.00
23659;BME280;12006;42.666;23.326;2023-06-26T08:16:23;-24631.66;;;24.88;100.00
23659;BME280;12006;42.666;23.326;2023-06-26T08:18:49;-24631.66;;;24.88;100.00
23659;BME280;12006;42.666;23.326;2023-06-26T08:21:14;-24629.28;;;24.81;100.00
23659;BME280;12006;42.666;23.326;2023-06-26T08:23:39;-24624.53;;;24.67;100.00
23659;BME280;12006;42.666;23.326;2023-06-26T08:26:05;-24617.91;;;24.48;100.00
23659;BME280;12006;42.666;23.326;2023-06-26T08:28:30;-24620.97;;;24.57;100.00
23659;BME280;12006;42.666;23.326;2023-06-26T08:30:56;-24632.84;;;24.92;100.00
23659;BME280;12006;42.666;23.326;2023-06-26T08:33:21;-24644.59;;;25.26;100.00
23659;BME280;12006;42.666;23.326;2023-06-26T08:35:46;-24645.63;;;25.29;100.00
23659;BME280;12006;42.666;23.326;2023-06-26T08:38:12;-24639.84;;;25.12;100.00
23659;BME280;12006;42.666;23.326;2023-06-26T08:40:37;-24628.28;;;24.78;100.00
23659;BME280;12006;42.666;23.326;2023-06-26T08:43:03;-24619.94;;;24.54;100.00
23659;BME280;12006;42.666;23.326;2023-06-26T08:45:29;-24610.06;;;24.25;100.00
23659;BME280;12006;42.666;23.326;2023-06-26T08:47:58;-24615.19;;;24.40;100.00
23659;BME280;12006;42.666;23.326;2023-06-26T08:50:28;-24627.59;;;24.76;100.00
23659;BME280;12006;42.666;23.326;2023-06-26T08:53:14;-24644.59;;;25.26;100.00
23659;BME280;12006;42.666;23.326;2023-06-26T08:55:49;-24645.28;;;25.28;100.00
23659;BME280;12006;42.666;23.326;2023-06-26T08:58:17;-24643.56;;;25.23;100.00
23659;BME280;12006;42.666;23.326;2023-06-26T09:00:42;-24640.19;;;25.13;100.00
23659;BME280;12006;42.666;23.326;2023-06-26T09:03:09;-24643.06;;;25.21;100.00
23659;BME280;12006;42.666;23.326;2023-06-26T09:05:34;-24642.38;;;25.19;100.00
23659;BME280;12006;42.666;23.326;2023-06-26T09:08:00;-24653.94;;;25.53;100.00
23659;BME280;12006;42.666;23.326;2023-06-26T09:10:26;-24654.13;;;25.54;100.00
23659;BME280;12006;42.666;23.326;2023-06-26T09:12:55;-24641.03;;;25.15;100.00
23659;BME280;12006;42.666;23.326;2023-06-26T09:15:21;-24634.03;;;24.95;100.00
23659;BME280;12006;42.666;23.326;2023-06-26T09:17:48;-24645.63;;;25.29;100.00
23659;BME280;12006;42.666;23.326;2023-06-26T09:20:14;-24637.47;;;25.05;100.00
23659;BME280;12006;42.666;23.326;2023-06-26T09:22:42;-24643.41;;;25.22;100.00
23659;BME280;12006;42.666;23.326;2023-06-26T09:25:09;-24643.22;;;25.22;100.00
23659;BME280;12006;42.666;23.326;2023-06-26T09:27:35;-24642.22;;;25.19;100.00
23659;BME280;12006;42.666;23.326;2023-06-26T09:30:05;-24643.75;;;25.23;100.00
23659;BME280;12006;42.666;23.326;2023-06-26T09:32:35;-24640.19;;;25.13;100.00
23659;BME280;12006;42.666;23.326;2023-06-26T09:35:03;-24636.25;;;25.02;100.00
23659;BME280;12006;42.666;23.326;2023-06-26T09:37:29;-24659.03;;;25.68;100.00
23659;BME280;12006;42.666;23.326;2023-06-26T09:39:54;-24645.94;;;25.30;100.00
23659;BME280;12006;42.666;23.326;2023-06-26T09:42:20;-24637.47;;;25.05;100.00
23659;BME280;12006;42.666;23.326;2023-06-26T09:44:47;-24628.28;;;24.78;100.00
23659;BME280;12006;42.666;23.326;2023-06-26T09:47:16;-24622.16;;;24.60;100.00
23659;BME280;12006;42.666;23.326;2023-06-26T09:49:42;-24617.56;;;24.47;100.00
23659;BME280;12006;42.666;23.326;2023-06-26T09:52:08;-24622.66;;;24.62;100.00
23659;BME280;12006;42.666;23.326;2023-06-26T09:54:34;-24624.53;;;24.67;100.00
23659;BME280;12006;42.666;23.326;2023-06-26T09:57:10;-24624.88;;;24.68;100.00
23659;BME280;12006;42.666;23.326;2023-06-26T09:59:36;-24631.31;;;24.87;100.00
23659;BME280;12006;42.666;23.326;2023-06-26T10:02:02;-24637.09;;;25.04;100.00
23659;BME280;12006;42.666;23.326;2023-06-26T10:04:27;-24650.88;;;25.44;100.00
23659;BME280;12006;42.666;23.326;2023-06-26T10:06:57;-24669.06;;;25.97;100.00
23659;BME280;12006;42.666;23.326;2023-06-26T10:09:24;-24664.66;;;25.84;100.00
23659;BME280;12006;42.666;23.326;2023-06-26T10:12:14;-24659.91;;;25.70;100.00
23659;BME280;12006;42.666;23.326;2023-06-26T10:14:43;-24662.28;;;25.77;100.00
23659;BME280;12006;42.666;23.326;2023-06-26T10:17:10;-24663.13;;;25.80;100.00
23659;BME280;12006;42.666;23.326;2023-06-26T10:19:39;-24663.47;;;25.81;100.00
23659;BME280;12006;42.666;23.326;2023-06-26T10:22:07;-24668.38;;;25.95;100.00
23659;BME280;12006;42.666;23.326;2023-06-26T10:24:35;-24675.34;;;26.16;100.00
23659;BME280;12006;42.666;23.326;2023-06-26T10:27:11;-24671.09;;;26.03;100.00
23659;BME280;12006;42.666;23.326;2023-06-26T10:29:39;-24659.22;;;25.68;100.00
23659;BME280;12006;42.666;23.326;2023-06-26T10:32:06;-24648.66;;;25.38;100.00
23659;BME280;12006;42.666;23.326;2023-06-26T10:34:32;-24650.19;;;25.42;100.00
23659;BME280;12006;42.666;23.326;2023-06-26T10:36:59;-24651.06;;;25.45;100.00
23659;BME280;12006;42.666;23.326;2023-06-26T10:39:26;-24650.72;;;25.44;100.00
23659;BME280;12006;42.666;23.326;2023-06-26T10:41:54;-24650.03;;;25.42;100.00
23659;BME280;12006;42.666;23.326;2023-06-26T10:44:20;-24656.66;;;25.61;100.00
23659;BME280;12006;42.666;23.326;2023-06-26T10:49:17;-24664.16;;;25.83;100.00
23659;BME280;12006;42.666;23.326;2023-06-26T10:51:47;-24665.16;;;25.86;100.00
23659;BME280;12006;42.666;23.326;2023-06-26T10:54:18;-24663.13;;;25.80;99.90
23659;BME280;12006;42.666;23.326;2023-06-26T10:56:49;-24657.69;;;25.64;100.00
23659;BME280;12006;42.666;23.326;2023-06-26T11:01:44;-24664.31;;;25.83;100.00
23659;BME280;12006;42.666;23.326;2023-06-26T11:04:12;-24666.53;;;25.90;100.00
23659;BME280;12006;42.666;23.326;2023-06-26T11:06:39;-24671.09;;;26.03;100.00
23659;BME280;12006;42.666;23.326;2023-06-26T11:14:19;-24693.19;;;26.68;92.28
23659;BME280;12006;42.666;23.326;2023-06-26T11:16:44;-24688.78;;;26.55;94.09
23659;BME280;12006;42.666;23.326;2023-06-26T11:19:11;-24698.63;;;26.84;97.94
23659;BME280;12006;42.666;23.326;2023-06-26T11:21:37;-24703.91;;;26.99;99.29
23659;BME280;12006;42.666;23.326;2023-06-26T11:24:04;-24701.34;;;26.92;97.36
23659;BME280;12006;42.666;23.326;2023-06-26T11:26:37;-24700.84;;;26.90;93.48
23659;BME280;12006;42.666;23.326;2023-06-26T11:29:03;-24689.13;;;26.56;91.94
23659;BME280;12006;42.666;23.326;2023-06-26T11:31:29;-24677.06;;;26.21;97.20
23659;BME280;12006;42.666;23.326;2023-06-26T11:33:59;-24668.56;;;25.96;100.00
23659;BME280;12006;42.666;23.326;2023-06-26T11:36:26;-24667.72;;;25.93;100.00
23659;BME280;12006;42.666;23.326;2023-06-26T11:38:55;-24662.44;;;25.78;97.40
23659;BME280;12006;42.666;23.326;2023-06-26T11:41:21;-24665.16;;;25.86;100.00
23659;BME280;12006;42.666;23.326;2023-06-26T11:43:47;-24661.75;;;25.76;98.39
23659;BME280;12006;42.666;23.326;2023-06-26T11:46:12;-24662.94;;;25.79;97.92
23659;BME280;12006;42.666;23.326;2023-06-26T11:48:39;-24661.25;;;25.74;98.44
23659;BME280;12006;42.666;23.326;2023-06-26T11:51:05;-24661.59;;;25.75;98.80
23659;BME280;12006;42.666;23.326;2023-06-26T11:53:30;-24662.28;;;25.77;100.00
23659;BME280;12006;42.666;23.326;2023-06-26T11:55:56;-24661.59;;;25.75;100.00
23659;BME280;12006;42.666;23.326;2023-06-26T11:58:22;-24652.75;;;25.50;99.61
23659;BME280;12006;42.666;23.326;2023-06-26T12:00:48;-24648.00;;;25.36;100.00
23659;BME280;12006;42.666;23.326;2023-06-26T12:03:13;-24652.75;;;25.50;100.00
23659;BME280;12006;42.666;23.326;2023-06-26T12:05:39;-24668.91;;;25.97;100.00
23659;BME280;12006;42.666;23.326;2023-06-26T12:08:06;-24683.34;;;26.39;98.32
23659;BME280;12006;42.666;23.326;2023-06-26T12:10:33;-24694.88;;;26.73;100.00
23659;BME280;12006;42.666;23.326;2023-06-26T12:12:58;-24704.41;;;27.00;88.63
23659;BME280;12006;42.666;23.326;2023-06-26T12:15:27;-24708.97;;;27.14;92.33
23659;BME280;12006;42.666;23.326;2023-06-26T12:17:53;-24719.00;;;27.43;93.83
23659;BME280;12006;42.666;23.326;2023-06-26T12:20:22;-24718.66;;;27.42;90.16
23659;BME280;12006;42.666;23.326;2023-06-26T12:22:49;-24721.38;;;27.50;89.05
23659;BME280;12006;42.666;23.326;2023-06-26T12:25:14;-24721.38;;;27.50;87.17
23659;BME280;12006;42.666;23.326;2023-06-26T12:27:40;-24718.66;;;27.42;86.59
23659;BME280;12006;42.666;23.326;2023-06-26T12:30:06;-24718.31;;;27.41;90.12
23659;BME280;12006;42.666;23.326;2023-06-26T12:32:31;-24736.31;;;27.94;85.80
23659;BME280;12006;42.666;23.326;2023-06-26T12:34:57;-24751.56;;;28.38;89.54
23659;BME280;12006;42.666;23.326;2023-06-26T12:37:23;-24760.38;;;28.64;77.67
23659;BME280;12006;42.666;23.326;2023-06-26T12:39:53;-24760.38;;;28.64;74.53
23659;BME280;12006;42.666;23.326;2023-06-26T12:42:23;-24754.97;;;28.48;78.18